sensor_id;sensor_type;location;lat;lon;timestamp;temperature;humidity
59469;DHT22;45277;52.768;18.262;2023-12-20T00:00:29;6.40;99.90
59469;DHT22;45277;52.768;18.262;2023-12-20T00:02:20;6.40;99.90
59469;DHT22;45277;52.768;18.262;2023-12-20T00:03:52;6.40;99.90
59469;DHT22;45277;52.768;18.262;2023-12-20T00:05:23;6.40;99.90
59469;DHT22;45277;52.768;18.262;2023-12-20T00:06:54;6.40;99.90
59469;DHT22;45277;52.768;18.262;2023-12-20T00:08:26;6.40;99.90
59469;DHT22;45277;52.768;18.262;2023-12-20T00:09:57;6.40;99.90
59469;DHT22;45277;52.768;18.262;2023-12-20T00:11:28;6.40;99.90
59469;DHT22;45277;52.768;18.262;2023-12-20T00:13:00;6.50;99.90
59469;DHT22;45277;52.768;18.262;2023-12-20T00:14:31;6.40;99.90
59469;DHT22;45277;52.768;18.262;2023-12-20T00:16:03;6.40;99.90
59469;DHT22;45277;52.768;18.262;2023-12-20T00:17:34;6.40;99.90
59469;DHT22;45277;52.768;18.262;2023-12-20T00:19:06;6.50;99.90
59469;DHT22;45277;52.768;18.262;2023-12-20T00:20:37;6.50;99.90
59469;DHT22;45277;52.768;18.262;2023-12-20T00:22:09;6.50;99.90
59469;DHT22;45277;52.768;18.262;2023-12-20T00:23:40;6.40;99.90
59469;DHT22;45277;52.768;18.262;2023-12-20T00:25:11;6.50;99.90
59469;DHT22;45277;52.768;18.262;2023-12-20T00:26:43;6.40;99.90
59469;DHT22;45277;52.768;18.262;2023-12-20T00:28:14;6.40;99.90
59469;DHT22;45277;52.768;18.262;2023-12-20T00:29:45;6.40;99.90
59469;DHT22;45277;52.768;18.262;2023-12-20T00:31:21;6.40;99.90
59469;DHT22;45277;52.768;18.262;2023-12-20T00:32:52;6.50;99.90
59469;DHT22;45277;52.768;18.262;2023-12-20T00:34:23;6.50;99.90
59469;DHT22;45277;52.768;18.262;2023-12-20T00:35:55;6.40;99.90
59469;DHT22;45277;52.768;18.262;2023-12-20T00:37:27;6.40;99.90
59469;DHT22;45277;52.768;18.262;2023-12-20T00:38:58;6.50;99.90
59469;DHT22;45277;52.768;18.262;2023-12-20T00:40:30;6.40;99.90
59469;DHT22;45277;52.768;18.262;2023-12-20T00:42:01;6.40;99.90
59469;DHT22;45277;52.768;18.262;2023-12-20T00:43:32;6.40;99.90
59469;DHT22;45277;52.768;18.262;2023-12-20T00:45:04;6.50;99.90
59469;DHT22;45277;52.768;18.262;2023-12-20T00:46:36;6.50;99.90
59469;DHT22;45277;52.768;18.262;2023-12-20T00:48:07;6.50;99.90
59469;DHT22;45277;52.768;18.262;2023-12-20T00:49:39;6.50;99.90
59469;DHT22;45277;52.768;18.262;2023-12-20T00:51:10;6.40;99.90
59469;DHT22;45277;52.768;18.262;2023-12-20T00:52:41;6.50;99.90
59469;DHT22;45277;52.768;18.262;2023-12-20T00:54:13;6.50;99.90
59469;DHT22;45277;52.768;18.262;2023-12-20T00:55:45;6.50;99.90
59469;DHT22;45277;52.768;18.262;2023-12-20T00:57:16;6.50;99.90
59469;DHT22;45277;52.768;18.262;2023-12-20T00:58:48;6.50;99.90
59469;DHT22;45277;52.768;18.262;2023-12-20T01:00:19;6.50;99.90
59469;DHT22;45277;52.768;18.262;2023-12-20T01:01:50;6.50;99.90
59469;DHT22;45277;52.768;18.262;2023-12-20T01:03:22;6.50;99.90
59469;DHT22;45277;52.768;18.262;2023-12-20T01:04:54;6.50;99.90
59469;DHT22;45277;52.768;18.262;2023-12-20T01:06:25;6.50;99.90
59469;DHT22;45277;52.768;18.262;2023-12-20T01:07:57;6.50;99.90
59469;DHT22;45277;52.768;18.262;2023-12-20T01:09:28;6.50;99.90
59469;DHT22;45277;52.768;18.262;2023-12-20T01:10:59;6.50;99.90
59469;DHT22;45277;52.768;18.262;2023-12-20T01:12:31;6.50;99.90
59469;DHT22;45277;52.768;18.262;2023-12-20T01:14:02;6.50;99.90
59469;DHT22;45277;52.768;18.262;2023-12-20T01:15:34;6.50;99.90
59469;DHT22;45277;52.768;18.262;2023-12-20T01:17:05;6.50;99.90
59469;DHT22;45277;52.768;18.262;2023-12-20T01:18:37;6.50;99.90
59469;DHT22;45277;52.768;18.262;2023-12-20T01:20:09;6.50;99.90
59469;DHT22;45277;52.768;18.262;2023-12-20T01:21:41;6.50;99.90
59469;DHT22;45277;52.768;18.262;2023-12-20T01:23:12;6.50;99.90
59469;DHT22;45277;52.768;18.262;2023-12-20T01:24:43;6.50;99.90
59469;DHT22;45277;52.768;18.262;2023-12-20T01:26:15;6.50;99.90
59469;DHT22;45277;52.768;18.262;2023-12-20T01:27:46;6.50;99.90
59469;DHT22;45277;52.768;18.262;2023-12-20T01:29:17;6.50;99.90
59469;DHT22;45277;52.768;18.262;2023-12-20T01:30:49;6.50;99.90
59469;DHT22;45277;52.768;18.262;2023-12-20T01:32:20;6.50;99.90
59469;DHT22;45277;52.768;18.262;2023-12-20T01:33:51;6.50;99.90
59469;DHT22;45277;52.768;18.262;2023-12-20T01:35:23;6.50;99.90
59469;DHT22;45277;52.768;18.262;2023-12-20T01:36:54;6.50;99.90
59469;DHT22;45277;52.768;18.262;2023-12-20T01:38:26;6.50;99.90
59469;DHT22;45277;52.768;18.262;2023-12-20T01:39:57;6.50;99.90
59469;DHT22;45277;52.768;18.262;2023-12-20T01:41:29;6.50;99.90
59469;DHT22;45277;52.768;18.262;2023-12-20T01:43:10;6.50;99.90
59469;DHT22;45277;52.768;18.262;2023-12-20T01:44:43;6.50;99.90
59469;DHT22;45277;52.768;18.262;2023-12-20T01:46:15;6.50;99.90
59469;DHT22;45277;52.768;18.262;2023-12-20T01:47:46;6.50;99.90
59469;DHT22;45277;52.768;18.262;2023-12-20T01:49:18;6.50;99.90
59469;DHT22;45277;52.768;18.262;2023-12-20T01:50:49;6.50;99.90
59469;DHT22;45277;52.768;18.262;2023-12-20T01:52:21;6.50;99.90
59469;DHT22;45277;52.768;18.262;2023-12-20T01:53:54;6.50;99.90
59469;DHT22;45277;52.768;18.262;2023-12-20T01:55:27;6.50;99.90
59469;DHT22;45277;52.768;18.262;2023-12-20T01:57:00;6.50;99.90
59469;DHT22;45277;52.768;18.262;2023-12-20T01:58:32;6.50;99.90
59469;DHT22;45277;52.768;18.262;2023-12-20T02:00:04;6.50;99.90
59469;DHT22;45277;52.768;18.262;2023-12-20T02:01:36;6.50;99.90
59469;DHT22;45277;52.768;18.262;2023-12-20T02:03:08;6.50;99.90
59469;DHT22;45277;52.768;18.262;2023-12-20T02:04:40;6.50;99.90
59469;DHT22;45277;52.768;18.262;2023-12-20T02:06:11;6.50;99.90
59469;DHT22;45277;52.768;18.262;2023-12-20T02:07:43;6.50;99.90
59469;DHT22;45277;52.768;18.262;2023-12-20T02:09:15;6.50;99.90
59469;DHT22;45277;52.768;18.262;2023-12-20T02:10:47;6.50;99.90
59469;DHT22;45277;52.768;18.262;2023-12-20T02:12:18;6.50;99.90
59469;DHT22;45277;52.768;18.262;2023-12-20T02:13:50;6.50;99.90
59469;DHT22;45277;52.768;18.262;2023-12-20T02:15:21;6.40;99.90
59469;DHT22;45277;52.768;18.262;2023-12-20T02:16:53;6.40;99.90
59469;DHT22;45277;52.768;18.262;2023-12-20T02:18:24;6.50;99.90
59469;DHT22;45277;52.768;18.262;2023-12-20T02:19:55;6.40;99.90
59469;DHT22;45277;52.768;18.262;2023-12-20T02:21:33;6.40;99.90
59469;DHT22;45277;52.768;18.262;2023-12-20T02:23:05;6.40;99.90
59469;DHT22;45277;52.768;18.262;2023-12-20T02:24:37;6.40;99.90
59469;DHT22;45277;52.768;18.262;2023-12-20T02:26:09;6.50;99.90
59469;DHT22;45277;52.768;18.262;2023-12-20T02:27:40;6.40;99.90
59469;DHT22;45277;52.768;18.262;2023-12-20T02:29:12;6.40;99.90
59469;DHT22;45277;52.768;18.262;2023-12-20T02:30:44;6.40;99.90
59469;DHT22;45277;52.768;18.262;2023-12-20T02:32:18;6.40;99.90
59469;DHT22;45277;52.768;18.262;2023-12-20T02:33:50;6.50;99.90
59469;DHT22;45277;52.768;18.262;2023-12-20T02:35:22;6.40;99.90
59469;DHT22;45277;52.768;18.262;2023-12-20T02:36:53;6.40;99.90
59469;DHT22;45277;52.768;18.262;2023-12-20T02:38:24;6.40;99.90
59469;DHT22;45277;52.768;18.262;2023-12-20T02:39:56;6.40;99.90
59469;DHT22;45277;52.768;18.262;2023-12-20T02:41:27;6.40;99.90
59469;DHT22;45277;52.768;18.262;2023-12-20T02:42:58;6.40;99.90
59469;DHT22;45277;52.768;18.262;2023-12-20T02:44:30;6.40;99.90
59469;DHT22;45277;52.768;18.262;2023-12-20T02:46:01;6.50;99.90
59469;DHT22;45277;52.768;18.262;2023-12-20T02:47:32;6.40;99.90
59469;DHT22;45277;52.768;18.262;2023-12-20T02:49:04;6.40;99.90
59469;DHT22;45277;52.768;18.262;2023-12-20T02:50:35;6.40;99.90
59469;DHT22;45277;52.768;18.262;2023-12-20T02:52:06;6.50;99.90
59469;DHT22;45277;52.768;18.262;2023-12-20T02:53:38;6.50;99.90
59469;DHT22;45277;52.768;18.262;2023-12-20T02:55:09;6.50;99.90
59469;DHT22;45277;52.768;18.262;2023-12-20T02:56:40;6.40;99.90
59469;DHT22;45277;52.768;18.262;2023-12-20T02:58:12;6.50;99.90
59469;DHT22;45277;52.768;18.262;2023-12-20T02:59:43;6.40;99.90
59469;DHT22;45277;52.768;18.262;2023-12-20T03:01:15;6.40;99.90
59469;DHT22;45277;52.768;18.262;2023-12-20T03:02:46;6.40;99.90
59469;DHT22;45277;52.768;18.262;2023-12-20T03:04:17;6.40;99.90
59469;DHT22;45277;52.768;18.262;2023-12-20T03:05:49;6.50;99.90
59469;DHT22;45277;52.768;18.262;2023-12-20T03:07:20;6.50;99.90
59469;DHT22;45277;52.768;18.262;2023-12-20T03:08:51;6.50;99.90
59469;DHT22;45277;52.768;18.262;2023-12-20T03:10:23;6.40;99.90
59469;DHT22;45277;52.768;18.262;2023-12-20T03:11:54;6.50;99.90
59469;DHT22;45277;52.768;18.262;2023-12-20T03:13:26;6.40;99.90
59469;DHT22;45277;52.768;18.262;2023-12-20T03:14:57;6.40;99.90
59469;DHT22;45277;52.768;18.262;2023-12-20T03:16:28;6.40;99.90
59469;DHT22;45277;52.768;18.262;2023-12-20T03:18:00;6.40;99.90
59469;DHT22;45277;52.768;18.262;2023-12-20T03:19:31;6.40;99.90
59469;DHT22;45277;52.768;18.262;2023-12-20T03:21:03;6.40;99.90
59469;DHT22;45277;52.768;18.262;2023-12-20T03:22:35;6.40;99.90
59469;DHT22;45277;52.768;18.262;2023-12-20T03:24:06;6.40;99.90
59469;DHT22;45277;52.768;18.262;2023-12-20T03:25:38;6.40;99.90
59469;DHT22;45277;52.768;18.262;2023-12-20T03:27:09;6.50;99.90
59469;DHT22;45277;52.768;18.262;2023-12-20T03:28:40;6.40;99.90
59469;DHT22;45277;52.768;18.262;2023-12-20T03:30:12;6.40;99.90
59469;DHT22;45277;52.768;18.262;2023-12-20T03:31:43;6.50;99.90
59469;DHT22;45277;52.768;18.262;2023-12-20T03:33:15;6.40;99.90
59469;DHT22;45277;52.768;18.262;2023-12-20T03:34:46;6.40;99.90
59469;DHT22;45277;52.768;18.262;2023-12-20T03:36:19;6.40;99.90
59469;DHT22;45277;52.768;18.262;2023-12-20T03:37:51;6.40;99.90
59469;DHT22;45277;52.768;18.262;2023-12-20T03:39:22;6.40;99.90
59469;DHT22;45277;52.768;18.262;2023-12-20T03:40:53;6.40;99.90
59469;DHT22;45277;52.768;18.262;2023-12-20T03:42:25;6.40;99.90
59469;DHT22;45277;52.768;18.262;2023-12-20T03:43:56;6.40;99.90
59469;DHT22;45277;52.768;18.262;2023-12-20T03:45:28;6.40;99.90
59469;DHT22;45277;52.768;18.262;2023-12-20T03:46:59;6.40;99.90
59469;DHT22;45277;52.768;18.262;2023-12-20T03:48:33;6.40;99.90
59469;DHT22;45277;52.768;18.262;2023-12-20T03:50:05;6.40;99.90
59469;DHT22;45277;52.768;18.262;2023-12-20T03:51:36;6.40;99.90
59469;DHT22;45277;52.768;18.262;2023-12-20T03:53:08;6.40;99.90
59469;DHT22;45277;52.768;18.262;2023-12-20T03:54:40;6.40;99.90
59469;DHT22;45277;52.768;18.262;2023-12-20T03:56:13;6.40;99.90
59469;DHT22;45277;52.768;18.262;2023-12-20T03:57:45;6.40;99.90
59469;DHT22;45277;52.768;18.262;2023-12-20T03:59:18;6.40;99.90
59469;DHT22;45277;52.768;18.262;2023-12-20T04:00:49;6.50;99.90
59469;DHT22;45277;52.768;18.262;2023-12-20T04:02:21;6.40;99.90
59469;DHT22;45277;52.768;18.262;2023-12-20T04:03:52;6.40;99.90
59469;DHT22;45277;52.768;18.262;2023-12-20T04:05:23;6.40;99.90
59469;DHT22;45277;52.768;18.262;2023-12-20T04:06:55;6.40;99.90
59469;DHT22;45277;52.768;18.262;2023-12-20T04:08:26;6.40;99.90
59469;DHT22;45277;52.768;18.262;2023-12-20T04:09:57;6.40;99.90
59469;DHT22;45277;52.768;18.262;2023-12-20T04:11:29;6.40;99.90
59469;DHT22;45277;52.768;18.262;2023-12-20T04:13:01;6.40;99.90
59469;DHT22;45277;52.768;18.262;2023-12-20T04:14:32;6.40;99.90
59469;DHT22;45277;52.768;18.262;2023-12-20T04:16:04;6.50;99.90
59469;DHT22;45277;52.768;18.262;2023-12-20T04:17:35;6.40;99.90
59469;DHT22;45277;52.768;18.262;2023-12-20T04:19:07;6.40;99.90
59469;DHT22;45277;52.768;18.262;2023-12-20T04:20:38;6.40;99.90
59469;DHT22;45277;52.768;18.262;2023-12-20T04:22:09;6.40;99.90
59469;DHT22;45277;52.768;18.262;2023-12-20T04:23:41;6.40;99.90
59469;DHT22;45277;52.768;18.262;2023-12-20T04:25:12;6.40;99.90
59469;DHT22;45277;52.768;18.262;2023-12-20T04:26:44;6.40;99.90
59469;DHT22;45277;52.768;18.262;2023-12-20T04:28:15;6.40;99.90
59469;DHT22;45277;52.768;18.262;2023-12-20T04:29:47;6.50;99.90
59469;DHT22;45277;52.768;18.262;2023-12-20T04:31:18;6.50;99.90
59469;DHT22;45277;52.768;18.262;2023-12-20T04:32:49;6.50;99.90
59469;DHT22;45277;52.768;18.262;2023-12-20T04:34:22;6.40;99.90
59469;DHT22;45277;52.768;18.262;2023-12-20T04:35:53;6.40;99.90
59469;DHT22;45277;52.768;18.262;2023-12-20T04:37:25;6.40;99.90
59469;DHT22;45277;52.768;18.262;2023-12-20T04:38:56;6.40;99.90
59469;DHT22;45277;52.768;18.262;2023-12-20T04:40:27;6.40;99.90
59469;DHT22;45277;52.768;18.262;2023-12-20T04:41:59;6.40;99.90
59469;DHT22;45277;52.768;18.262;2023-12-20T04:43:30;6.40;99.90
59469;DHT22;45277;52.768;18.262;2023-12-20T04:45:01;6.40;99.90
59469;DHT22;45277;52.768;18.262;2023-12-20T04:46:34;6.40;99.90
59469;DHT22;45277;52.768;18.262;2023-12-20T04:48:06;6.40;99.90
59469;DHT22;45277;52.768;18.262;2023-12-20T04:49:37;6.40;99.90
59469;DHT22;45277;52.768;18.262;2023-12-20T04:51:08;6.40;99.90
59469;DHT22;45277;52.768;18.262;2023-12-20T04:52:40;6.40;99.90
59469;DHT22;45277;52.768;18.262;2023-12-20T04:54:11;6.40;99.90
59469;DHT22;45277;52.768;18.262;2023-12-20T04:55:43;6.50;99.90
59469;DHT22;45277;52.768;18.262;2023-12-20T04:57:14;6.40;99.90
59469;DHT22;45277;52.768;18.262;2023-12-20T04:58:46;6.40;99.90
59469;DHT22;45277;52.768;18.262;2023-12-20T05:00:18;6.40;99.90
59469;DHT22;45277;52.768;18.262;2023-12-20T05:01:49;6.40;99.90
59469;DHT22;45277;52.768;18.262;2023-12-20T05:03:20;6.40;99.90
59469;DHT22;45277;52.768;18.262;2023-12-20T05:04:52;6.40;99.90
59469;DHT22;45277;52.768;18.262;2023-12-20T05:06:23;6.40;99.90
59469;DHT22;45277;52.768;18.262;2023-12-20T05:07:55;6.40;99.90
59469;DHT22;45277;52.768;18.262;2023-12-20T05:09:27;6.40;99.90
59469;DHT22;45277;52.768;18.262;2023-12-20T05:10:58;6.40;99.90
59469;DHT22;45277;52.768;18.262;2023-12-20T05:12:30;6.40;99.90
59469;DHT22;45277;52.768;18.262;2023-12-20T05:14:01;6.40;99.90
59469;DHT22;45277;52.768;18.262;2023-12-20T05:15:33;6.40;99.90
59469;DHT22;45277;52.768;18.262;2023-12-20T05:17:04;6.40;99.90
59469;DHT22;45277;52.768;18.262;2023-12-20T05:18:35;6.40;99.90
59469;DHT22;45277;52.768;18.262;2023-12-20T05:20:07;6.40;99.90
59469;DHT22;45277;52.768;18.262;2023-12-20T05:21:39;6.40;99.90
59469;DHT22;45277;52.768;18.262;2023-12-20T05:23:10;6.40;99.90
59469;DHT22;45277;52.768;18.262;2023-12-20T05:24:42;6.40;99.90
59469;DHT22;45277;52.768;18.262;2023-12-20T05:26:14;6.40;99.90
59469;DHT22;45277;52.768;18.262;2023-12-20T05:27:45;6.40;99.90
59469;DHT22;45277;52.768;18.262;2023-12-20T05:29:17;6.40;99.90
59469;DHT22;45277;52.768;18.262;2023-12-20T05:30:48;6.40;99.90
59469;DHT22;45277;52.768;18.262;2023-12-20T05:32:19;6.40;99.90
59469;DHT22;45277;52.768;18.262;2023-12-20T05:33:51;6.40;99.90
59469;DHT22;45277;52.768;18.262;2023-12-20T05:35:22;6.40;99.90
59469;DHT22;45277;52.768;18.262;2023-12-20T05:36:54;6.40;99.90
59469;DHT22;45277;52.768;18.262;2023-12-20T05:38:26;6.40;99.90
59469;DHT22;45277;52.768;18.262;2023-12-20T05:39:57;6.40;99.90
59469;DHT22;45277;52.768;18.262;2023-12-20T05:41:29;6.40;99.90
59469;DHT22;45277;52.768;18.262;2023-12-20T05:43:00;6.40;99.90
59469;DHT22;45277;52.768;18.262;2023-12-20T05:44:32;6.30;99.90
59469;DHT22;45277;52.768;18.262;2023-12-20T05:46:03;6.40;99.90
59469;DHT22;45277;52.768;18.262;2023-12-20T05:47:35;6.40;99.90
59469;DHT22;45277;52.768;18.262;2023-12-20T05:49:06;6.40;99.90
59469;DHT22;45277;52.768;18.262;2023-12-20T05:50:38;6.40;99.90
59469;DHT22;45277;52.768;18.262;2023-12-20T05:52:10;6.40;99.90
59469;DHT22;45277;52.768;18.262;2023-12-20T05:53:42;6.30;99.90
59469;DHT22;45277;52.768;18.262;2023-12-20T05:55:13;6.40;99.90
59469;DHT22;45277;52.768;18.262;2023-12-20T05:56:45;6.40;99.90
59469;DHT22;45277;52.768;18.262;2023-12-20T05:58:16;6.30;99.90
59469;DHT22;45277;52.768;18.262;2023-12-20T05:59:47;6.30;99.90
59469;DHT22;45277;52.768;18.262;2023-12-20T06:01:19;6.30;99.90
59469;DHT22;45277;52.768;18.262;2023-12-20T06:02:50;6.40;99.90
59469;DHT22;45277;52.768;18.262;2023-12-20T06:04:22;6.40;99.90
59469;DHT22;45277;52.768;18.262;2023-12-20T06:05:53;6.30;99.90
59469;DHT22;45277;52.768;18.262;2023-12-20T06:07:24;6.30;99.90
59469;DHT22;45277;52.768;18.262;2023-12-20T06:08:56;6.40;99.90
59469;DHT22;45277;52.768;18.262;2023-12-20T06:10:29;6.30;99.90
59469;DHT22;45277;52.768;18.262;2023-12-20T06:12:01;6.30;99.90
59469;DHT22;45277;52.768;18.262;2023-12-20T06:13:32;6.30;99.90
59469;DHT22;45277;52.768;18.262;2023-12-20T06:15:04;6.30;99.90
59469;DHT22;45277;52.768;18.262;2023-12-20T06:16:37;6.30;99.90
59469;DHT22;45277;52.768;18.262;2023-12-20T06:18:08;6.30;99.90
59469;DHT22;45277;52.768;18.262;2023-12-20T06:19:40;6.30;99.90
59469;DHT22;45277;52.768;18.262;2023-12-20T06:21:13;6.30;99.90
59469;DHT22;45277;52.768;18.262;2023-12-20T06:22:45;6.30;99.90
59469;DHT22;45277;52.768;18.262;2023-12-20T06:24:17;6.30;99.90
59469;DHT22;45277;52.768;18.262;2023-12-20T06:25:48;6.20;99.90
59469;DHT22;45277;52.768;18.262;2023-12-20T06:27:19;6.30;99.90
59469;DHT22;45277;52.768;18.262;2023-12-20T06:28:51;6.30;99.90
59469;DHT22;45277;52.768;18.262;2023-12-20T06:30:22;6.20;99.90
59469;DHT22;45277;52.768;18.262;2023-12-20T06:31:56;6.20;99.90
59469;DHT22;45277;52.768;18.262;2023-12-20T06:33:27;6.20;99.90
59469;DHT22;45277;52.768;18.262;2023-12-20T06:35:00;6.20;99.90
59469;DHT22;45277;52.768;18.262;2023-12-20T06:36:31;6.20;99.90
59469;DHT22;45277;52.768;18.262;2023-12-20T06:38:03;6.20;99.90
59469;DHT22;45277;52.768;18.262;2023-12-20T06:39:35;6.20;99.90
59469;DHT22;45277;52.768;18.262;2023-12-20T06:41:06;6.10;99.90
59469;DHT22;45277;52.768;18.262;2023-12-20T06:42:38;6.20;99.90
59469;DHT22;45277;52.768;18.262;2023-12-20T06:44:09;6.10;99.90
59469;DHT22;45277;52.768;18.262;2023-12-20T06:45:40;6.20;99.90
59469;DHT22;45277;52.768;18.262;2023-12-20T06:47:12;6.10;99.90
59469;DHT22;45277;52.768;18.262;2023-12-20T06:48:45;6.10;99.90
59469;DHT22;45277;52.768;18.262;2023-12-20T06:50:16;6.00;99.90
59469;DHT22;45277;52.768;18.262;2023-12-20T06:51:48;6.10;99.90
59469;DHT22;45277;52.768;18.262;2023-12-20T06:53:19;6.00;99.90
59469;DHT22;45277;52.768;18.262;2023-12-20T06:54:50;6.00;99.90
59469;DHT22;45277;52.768;18.262;2023-12-20T06:56:22;6.00;99.90
59469;DHT22;45277;52.768;18.262;2023-12-20T06:57:53;6.00;99.90
59469;DHT22;45277;52.768;18.262;2023-12-20T06:59:25;6.00;99.90
59469;DHT22;45277;52.768;18.262;2023-12-20T07:00:57;5.90;99.90
59469;DHT22;45277;52.768;18.262;2023-12-20T07:02:28;6.00;99.90
59469;DHT22;45277;52.768;18.262;2023-12-20T07:04:01;6.00;99.90
59469;DHT22;45277;52.768;18.262;2023-12-20T07:05:33;5.90;99.90
59469;DHT22;45277;52.768;18.262;2023-12-20T07:07:04;5.90;99.90
59469;DHT22;45277;52.768;18.262;2023-12-20T07:08:35;5.90;99.90
59469;DHT22;45277;52.768;18.262;2023-12-20T07:10:07;5.90;99.90
59469;DHT22;45277;52.768;18.262;2023-12-20T07:11:39;5.80;99.90
59469;DHT22;45277;52.768;18.262;2023-12-20T07:13:10;5.80;99.90
59469;DHT22;45277;52.768;18.262;2023-12-20T07:14:42;5.80;99.90
59469;DHT22;45277;52.768;18.262;2023-12-20T07:16:13;5.70;99.90
59469;DHT22;45277;52.768;18.262;2023-12-20T07:17:44;5.70;99.90
59469;DHT22;45277;52.768;18.262;2023-12-20T07:19:16;5.70;99.90
59469;DHT22;45277;52.768;18.262;2023-12-20T07:20:47;5.80;99.90
59469;DHT22;45277;52.768;18.262;2023-12-20T07:22:19;5.80;99.90
59469;DHT22;45277;52.768;18.262;2023-12-20T07:23:50;5.80;99.90
59469;DHT22;45277;52.768;18.262;2023-12-20T07:25:22;5.90;99.90
59469;DHT22;45277;52.768;18.262;2023-12-20T07:26:53;5.90;99.90
59469;DHT22;45277;52.768;18.262;2023-12-20T07:28:25;5.90;99.90
59469;DHT22;45277;52.768;18.262;2023-12-20T07:29:56;5.90;99.90
59469;DHT22;45277;52.768;18.262;2023-12-20T07:31:27;5.90;99.90
59469;DHT22;45277;52.768;18.262;2023-12-20T07:32:59;5.90;99.90
59469;DHT22;45277;52.768;18.262;2023-12-20T07:34:30;5.90;99.90
59469;DHT22;45277;52.768;18.262;2023-12-20T07:36:01;5.90;99.90
59469;DHT22;45277;52.768;18.262;2023-12-20T07:37:33;5.90;99.90
59469;DHT22;45277;52.768;18.262;2023-12-20T07:39:04;5.80;99.90
59469;DHT22;45277;52.768;18.262;2023-12-20T07:40:36;5.80;99.90
59469;DHT22;45277;52.768;18.262;2023-12-20T07:42:08;5.80;99.90
59469;DHT22;45277;52.768;18.262;2023-12-20T07:43:40;5.80;99.90
59469;DHT22;45277;52.768;18.262;2023-12-20T07:45:11;5.70;99.90
59469;DHT22;45277;52.768;18.262;2023-12-20T07:46:43;5.70;99.90
59469;DHT22;45277;52.768;18.262;2023-12-20T07:48:15;5.70;99.90
59469;DHT22;45277;52.768;18.262;2023-12-20T07:49:50;5.60;99.90
59469;DHT22;45277;52.768;18.262;2023-12-20T07:51:23;5.60;99.90
59469;DHT22;45277;52.768;18.262;2023-12-20T07:52:55;5.60;99.90
59469;DHT22;45277;52.768;18.262;2023-12-20T07:54:26;5.60;99.90
59469;DHT22;45277;52.768;18.262;2023-12-20T07:55:59;5.60;99.90
59469;DHT22;45277;52.768;18.262;2023-12-20T07:57:31;5.60;99.90
59469;DHT22;45277;52.768;18.262;2023-12-20T07:59:02;5.60;99.90
59469;DHT22;45277;52.768;18.262;2023-12-20T08:00:34;5.50;99.90
59469;DHT22;45277;52.768;18.262;2023-12-20T08:02:06;5.50;99.90
59469;DHT22;45277;52.768;18.262;2023-12-20T08:03:38;5.50;99.90
59469;DHT22;45277;52.768;18.262;2023-12-20T08:05:14;5.60;99.90
59469;DHT22;45277;52.768;18.262;2023-12-20T08:06:46;5.50;99.90
59469;DHT22;45277;52.768;18.262;2023-12-20T08:08:18;5.50;99.90
59469;DHT22;45277;52.768;18.262;2023-12-20T08:09:50;5.50;99.90
59469;DHT22;45277;52.768;18.262;2023-12-20T08:11:26;5.50;99.90
59469;DHT22;45277;52.768;18.262;2023-12-20T08:12:58;5.50;99.90
59469;DHT22;45277;52.768;18.262;2023-12-20T08:14:32;5.60;99.90
59469;DHT22;45277;52.768;18.262;2023-12-20T08:16:04;5.60;99.90
59469;DHT22;45277;52.768;18.262;2023-12-20T08:17:35;5.60;99.90
59469;DHT22;45277;52.768;18.262;2023-12-20T08:19:07;5.60;99.90
59469;DHT22;45277;52.768;18.262;2023-12-20T08:20:38;5.60;99.90
59469;DHT22;45277;52.768;18.262;2023-12-20T08:22:10;5.60;99.90
59469;DHT22;45277;52.768;18.262;2023-12-20T08:23:42;5.70;99.90
59469;DHT22;45277;52.768;18.262;2023-12-20T08:25:14;5.60;99.90
59469;DHT22;45277;52.768;18.262;2023-12-20T08:26:46;5.60;99.90
59469;DHT22;45277;52.768;18.262;2023-12-20T08:28:18;5.60;99.90
59469;DHT22;45277;52.768;18.262;2023-12-20T08:29:50;5.60;99.90
59469;DHT22;45277;52.768;18.262;2023-12-20T08:31:21;5.60;99.90
59469;DHT22;45277;52.768;18.262;2023-12-20T08:32:53;5.60;99.90
59469;DHT22;45277;52.768;18.262;2023-12-20T08:34:25;5.60;99.90
59469;DHT22;45277;52.768;18.262;2023-12-20T08:35:56;5.70;99.90
59469;DHT22;45277;52.768;18.262;2023-12-20T08:37:29;5.60;99.90
59469;DHT22;45277;52.768;18.262;2023-12-20T08:39:01;5.60;99.90
59469;DHT22;45277;52.768;18.262;2023-12-20T08:40:34;5.60;99.90
59469;DHT22;45277;52.768;18.262;2023-12-20T08:42:07;5.70;99.90
59469;DHT22;45277;52.768;18.262;2023-12-20T08:43:38;5.70;99.90
59469;DHT22;45277;52.768;18.262;2023-12-20T08:45:11;5.70;99.90
59469;DHT22;45277;52.768;18.262;2023-12-20T08:46:43;5.70;99.90
59469;DHT22;45277;52.768;18.262;2023-12-20T08:48:14;5.70;99.90
59469;DHT22;45277;52.768;18.262;2023-12-20T08:49:45;5.70;99.90
59469;DHT22;45277;52.768;18.262;2023-12-20T08:51:17;5.70;99.90
59469;DHT22;45277;52.768;18.262;2023-12-20T08:52:50;5.70;99.90
59469;DHT22;45277;52.768;18.262;2023-12-20T08:54:21;5.80;99.90
59469;DHT22;45277;52.768;18.262;2023-12-20T08:55:53;5.80;99.90
59469;DHT22;45277;52.768;18.262;2023-12-20T08:57:24;5.80;99.90
59469;DHT22;45277;52.768;18.262;2023-12-20T08:58:56;5.80;99.90
59469;DHT22;45277;52.768;18.262;2023-12-20T09:00:28;5.90;99.90
59469;DHT22;45277;52.768;18.262;2023-12-20T09:02:00;5.90;99.90
59469;DHT22;45277;52.768;18.262;2023-12-20T09:03:32;5.80;99.90
59469;DHT22;45277;52.768;18.262;2023-12-20T09:05:04;5.80;99.90
59469;DHT22;45277;52.768;18.262;2023-12-20T09:06:35;5.80;99.90
59469;DHT22;45277;52.768;18.262;2023-12-20T09:08:08;5.80;99.90
59469;DHT22;45277;52.768;18.262;2023-12-20T09:09:41;5.80;99.90
59469;DHT22;45277;52.768;18.262;2023-12-20T09:11:13;5.80;99.90
59469;DHT22;45277;52.768;18.262;2023-12-20T09:12:44;5.70;99.90
59469;DHT22;45277;52.768;18.262;2023-12-20T09:14:18;5.70;99.90
59469;DHT22;45277;52.768;18.262;2023-12-20T09:15:50;5.70;99.90
59469;DHT22;45277;52.768;18.262;2023-12-20T09:17:21;5.70;99.90
59469;DHT22;45277;52.768;18.262;2023-12-20T09:18:54;5.60;99.90
59469;DHT22;45277;52.768;18.262;2023-12-20T09:20:25;5.60;99.90
59469;DHT22;45277;52.768;18.262;2023-12-20T09:21:56;5.60;99.90
59469;DHT22;45277;52.768;18.262;2023-12-20T09:23:28;5.60;99.90
59469;DHT22;45277;52.768;18.262;2023-12-20T09:25:01;5.50;99.90
59469;DHT22;45277;52.768;18.262;2023-12-20T09:26:35;5.50;99.90
59469;DHT22;45277;52.768;18.262;2023-12-20T09:28:07;5.60;99.90
59469;DHT22;45277;52.768;18.262;2023-12-20T09:29:39;5.60;99.90
59469;DHT22;45277;52.768;18.262;2023-12-20T09:31:10;5.60;99.90
59469;DHT22;45277;52.768;18.262;2023-12-20T09:32:43;5.60;99.90
59469;DHT22;45277;52.768;18.262;2023-12-20T09:34:15;5.60;99.90
59469;DHT22;45277;52.768;18.262;2023-12-20T09:35:47;5.70;99.90
59469;DHT22;45277;52.768;18.262;2023-12-20T09:37:19;5.60;99.90
59469;DHT22;45277;52.768;18.262;2023-12-20T09:38:51;5.60;99.90